createdAt,value
2022-12-23T00:00:59.287Z,2.75
2022-12-23T00:06:01.240Z,2.55
2022-12-23T00:11:03.961Z,2.35
2022-12-23T00:16:07.448Z,2.70
2022-12-23T00:21:09.977Z,2.30
2022-12-23T00:26:22.061Z,2.40
2022-12-23T00:31:23.504Z,2.28
2022-12-23T00:36:28.819Z,2.15
2022-12-23T00:41:48.744Z,2.47
2022-12-23T00:51:51.399Z,2.65
2022-12-23T00:56:52.747Z,2.60
2022-12-23T01:02:12.805Z,2.60
2022-12-23T01:07:14.211Z,2.72
2022-12-23T01:12:15.554Z,3.47
2022-12-23T01:17:16.975Z,3.08
2022-12-23T01:22:18.434Z,3.17
2022-12-23T01:27:19.770Z,3.08
2022-12-23T01:32:21.103Z,2.65
2022-12-23T01:37:22.525Z,3.10
2022-12-23T01:42:42.339Z,3.20
2022-12-23T01:52:52.004Z,2.70
2022-12-23T01:57:54.662Z,3.15
2022-12-23T02:03:14.641Z,2.90
2022-12-23T02:08:35.034Z,3.03
2022-12-23T02:14:04.482Z,3.78
2022-12-23T02:19:11.881Z,4.03
2022-12-23T02:24:31.779Z,4.47
2022-12-23T02:29:54.737Z,3.83
2022-12-23T02:34:59.161Z,4.30
2022-12-23T02:40:19.414Z,3.97
2022-12-23T02:45:26.253Z,4.78
2022-12-23T02:50:29.510Z,4.50
2022-12-23T02:55:33.442Z,4.50
2022-12-23T03:00:35.722Z,4.25
2022-12-23T03:05:39.432Z,4.82
2022-12-23T03:11:02.843Z,4.25
2022-12-23T03:16:10.600Z,4.60
2022-12-23T03:21:11.960Z,4.60
2022-12-23T03:26:18.786Z,4.32
2022-12-23T03:31:25.134Z,4.80
2022-12-23T03:36:29.611Z,4.50
2022-12-23T03:41:33.360Z,4.25
2022-12-23T03:46:39.082Z,4.32
2022-12-23T03:51:56.080Z,4.35
2022-12-23T03:57:01.417Z,3.95
2022-12-23T04:02:02.803Z,4.07
2022-12-23T04:07:10.979Z,4.45
2022-12-23T04:12:13.751Z,3.78
2022-12-23T04:17:15.449Z,3.35
2022-12-23T04:22:16.846Z,3.83
2022-12-23T04:27:18.196Z,3.05
2022-12-23T04:32:19.572Z,3.35
2022-12-23T04:37:20.871Z,2.58
2022-12-23T04:42:22.395Z,2.75
2022-12-23T04:47:23.721Z,3.10
2022-12-23T04:52:25.057Z,3.03
2022-12-23T04:57:26.414Z,3.88
2022-12-23T05:02:27.841Z,3.22
2022-12-23T05:07:29.206Z,2.35
2022-12-23T05:12:30.913Z,2.88
2022-12-23T05:17:32.215Z,3.55
2022-12-23T05:22:33.559Z,2.88
2022-12-23T05:27:35.808Z,2.83
2022-12-23T05:32:37.188Z,4.05
2022-12-23T05:37:38.617Z,3.53
2022-12-23T05:42:40.173Z,3.90
2022-12-23T05:47:41.489Z,3.80
2022-12-23T05:52:42.890Z,3.63
2022-12-23T05:57:44.250Z,3.40
2022-12-23T06:02:51.671Z,4.22
2022-12-23T06:12:56.273Z,4.30
2022-12-23T06:17:57.805Z,4.50
2022-12-23T06:22:59.172Z,3.90
2022-12-23T06:28:00.531Z,4.85
2022-12-23T06:39:35.911Z,3.85
2022-12-23T06:44:37.234Z,3.33
2022-12-23T06:49:38.552Z,4.28
2022-12-23T06:54:39.852Z,4.18
2022-12-23T06:59:41.236Z,3.92
2022-12-23T07:04:42.592Z,3.35
2022-12-23T07:09:43.913Z,4.10
2022-12-23T07:14:45.311Z,4.50
2022-12-23T07:19:46.602Z,5.05
2022-12-23T07:24:47.980Z,4.78
2022-12-23T07:29:49.355Z,4.63
2022-12-23T07:34:50.730Z,4.70
2022-12-23T07:39:52.102Z,4.88
2022-12-23T07:44:53.415Z,4.85
2022-12-23T07:49:54.702Z,4.43
2022-12-23T07:54:56.065Z,4.93
2022-12-23T07:59:58.033Z,5.53
2022-12-23T08:04:59.390Z,5.60
2022-12-23T08:10:00.893Z,5.63
2022-12-23T08:15:02.304Z,5.40
2022-12-23T08:20:03.714Z,5.10
2022-12-23T08:25:05.241Z,5.53
2022-12-23T08:30:06.859Z,5.25
2022-12-23T08:35:08.325Z,6.47
2022-12-23T08:40:09.861Z,5.50
2022-12-23T08:45:11.213Z,7.10
2022-12-23T08:50:12.529Z,6.78
2022-12-23T08:55:13.882Z,7.05
2022-12-23T09:00:15.281Z,7.00
2022-12-23T09:05:16.592Z,7.05
2022-12-23T09:10:18.007Z,7.00
2022-12-23T09:15:19.464Z,6.97
2022-12-23T09:20:20.809Z,7.53
2022-12-23T09:25:22.125Z,5.72
2022-12-23T09:30:23.628Z,6.78
2022-12-23T09:35:25.104Z,5.43
2022-12-23T09:40:28.988Z,4.88
2022-12-23T09:45:48.626Z,4.07
2022-12-23T09:50:49.980Z,4.88
2022-12-23T09:55:57.309Z,3.88
2022-12-23T10:01:24.836Z,4.60
2022-12-23T10:06:27.847Z,4.90
2022-12-23T10:11:31.048Z,4.80
2022-12-23T10:16:35.453Z,4.57
2022-12-23T10:21:45.363Z,4.93
2022-12-23T10:26:52.536Z,4.15
2022-12-23T10:32:06.968Z,5.40
2022-12-23T10:37:14.426Z,4.22
2022-12-23T10:42:28.869Z,3.90
2022-12-23T10:47:40.164Z,3.83
2022-12-23T10:52:42.799Z,4.20
2022-12-23T10:57:44.155Z,3.28
2022-12-23T11:03:04.075Z,3.10
2022-12-23T11:08:05.677Z,2.78
2022-12-23T11:13:07.060Z,2.80
2022-12-23T11:18:11.182Z,2.90
2022-12-23T11:23:25.930Z,2.70
2022-12-23T11:28:27.681Z,3.22
2022-12-23T11:33:30.136Z,3.10
2022-12-23T11:38:31.939Z,3.10
2022-12-23T11:43:33.978Z,3.30
2022-12-23T11:48:35.319Z,3.80
2022-12-23T11:53:36.680Z,3.55
2022-12-23T11:58:45.624Z,2.95
2022-12-23T12:03:48.520Z,3.00
2022-12-23T12:08:51.417Z,2.20
2022-12-23T12:13:58.814Z,2.60
2022-12-23T12:19:12.149Z,2.25
2022-12-23T12:24:19.895Z,2.33
2022-12-23T12:29:21.269Z,2.10
2022-12-23T12:34:28.539Z,2.05
2022-12-23T12:39:43.212Z,1.73
2022-12-23T12:44:56.945Z,2.33
2022-12-23T12:50:03.290Z,1.38
2022-12-23T12:55:13.535Z,1.42
2022-12-23T13:00:16.759Z,1.95
2022-12-23T13:05:36.862Z,1.90
2022-12-23T13:10:38.290Z,1.65
2022-12-23T13:15:47.230Z,2.38
2022-12-23T13:20:52.227Z,3.38
2022-12-23T13:25:58.323Z,3.38
2022-12-23T13:31:19.930Z,3.00
2022-12-23T13:36:28.315Z,2.05
2022-12-23T13:41:34.139Z,2.47
2022-12-23T13:46:40.088Z,2.70
2022-12-23T13:51:53.603Z,3.03
2022-12-23T13:57:01.289Z,2.97
2022-12-23T14:02:02.664Z,4.13
2022-12-23T14:07:16.091Z,3.65
2022-12-23T14:12:22.462Z,3.20
2022-12-23T14:17:38.235Z,2.63
2022-12-23T14:22:48.581Z,5.55
2022-12-23T14:27:59.038Z,1.77
2022-12-23T14:33:01.973Z,2.60
2022-12-23T14:38:09.644Z,2.05
2022-12-23T14:43:23.089Z,1.70
2022-12-23T14:48:33.409Z,1.60
2022-12-23T14:53:57.506Z,1.65
2022-12-23T14:59:17.816Z,1.58
2022-12-23T15:04:20.975Z,1.65
2022-12-23T15:09:27.187Z,2.05
2022-12-23T15:14:34.260Z,1.95
2022-12-23T15:19:43.806Z,2.13
2022-12-23T15:24:45.431Z,1.40
2022-12-23T15:29:48.359Z,1.40
2022-12-23T15:34:50.334Z,1.80
2022-12-23T15:39:57.966Z,1.45
2022-12-23T15:45:18.275Z,1.38
2022-12-23T15:50:19.748Z,1.27
2022-12-23T15:55:21.029Z,1.30
2022-12-23T16:00:24.648Z,1.42
2022-12-23T16:05:30.322Z,1.30
2022-12-23T16:10:31.626Z,1.40
2022-12-23T16:15:32.963Z,1.13
2022-12-23T16:20:40.180Z,1.70
2022-12-23T16:25:48.566Z,1.33
2022-12-23T16:30:56.910Z,1.42
2022-12-23T16:36:13.964Z,1.65
2022-12-23T16:41:15.408Z,1.52
2022-12-23T16:46:17.617Z,1.38
2022-12-23T16:51:20.228Z,1.33
2022-12-23T16:56:22.852Z,1.42
2022-12-23T17:01:25.985Z,1.40
2022-12-23T17:06:27.552Z,1.63
2022-12-23T17:11:37.069Z,1.35
2022-12-23T17:16:38.451Z,1.50
2022-12-23T17:21:40.546Z,1.55
2022-12-23T17:26:41.874Z,2.00
2022-12-23T17:31:43.610Z,1.95
2022-12-23T17:36:49.987Z,1.65
2022-12-23T17:41:51.872Z,2.58
2022-12-23T17:46:53.250Z,2.28
2022-12-23T17:51:54.545Z,2.22
2022-12-23T17:56:57.113Z,1.80
2022-12-23T18:01:58.458Z,2.47
2022-12-23T18:06:59.787Z,1.65
2022-12-23T18:12:01.105Z,2.03
2022-12-23T18:17:02.499Z,2.63
2022-12-23T18:22:03.904Z,2.53
2022-12-23T18:27:11.021Z,2.70
2022-12-23T18:32:23.041Z,3.33
2022-12-23T18:37:24.436Z,4.28
2022-12-23T18:42:25.773Z,2.42
2022-12-23T18:47:27.096Z,2.72
2022-12-23T18:52:28.403Z,4.00
2022-12-23T18:57:29.710Z,2.85
2022-12-23T19:02:31.074Z,2.58
2022-12-23T19:07:32.500Z,2.72
2022-12-23T19:12:33.796Z,3.33
2022-12-23T19:17:35.166Z,3.03
2022-12-23T19:22:36.544Z,2.92
2022-12-23T19:27:38.761Z,2.22
2022-12-23T19:32:40.316Z,2.38
2022-12-23T19:37:42.095Z,2.70
2022-12-23T19:42:43.505Z,2.63
2022-12-23T19:47:44.817Z,2.78
2022-12-23T19:52:46.195Z,2.72
2022-12-23T19:57:47.560Z,2.13
2022-12-23T20:02:55.065Z,2.33
2022-12-23T20:07:59.868Z,2.75
2022-12-23T20:13:01.187Z,2.45
2022-12-23T20:18:02.501Z,3.30
2022-12-23T20:23:03.814Z,3.03
2022-12-23T20:28:05.422Z,2.72
2022-12-23T20:33:06.788Z,2.90
2022-12-23T20:38:08.380Z,3.88
2022-12-23T20:43:15.066Z,3.15
2022-12-23T20:48:18.071Z,3.15
2022-12-23T20:53:19.396Z,2.42
2022-12-23T20:58:39.369Z,3.22
2022-12-23T21:03:41.305Z,2.85
2022-12-23T21:08:43.173Z,2.35
2022-12-23T21:13:46.885Z,2.40
2022-12-23T21:18:53.169Z,2.47
2022-12-23T21:23:55.466Z,2.85
2022-12-23T21:28:59.402Z,2.38
2022-12-23T21:34:00.818Z,2.47
2022-12-23T21:39:02.148Z,2.30
2022-12-23T21:44:03.708Z,2.85
2022-12-23T21:49:05.226Z,2.42
2022-12-23T21:54:06.588Z,3.42
2022-12-23T21:59:10.419Z,2.20
2022-12-23T22:04:12.006Z,2.50
2022-12-23T22:09:14.887Z,2.20
2022-12-23T22:14:17.833Z,2.63
2022-12-23T22:19:19.164Z,2.30
2022-12-23T22:24:20.460Z,2.95
2022-12-23T22:29:21.774Z,2.40
2022-12-23T22:34:23.122Z,2.33
2022-12-23T22:39:24.499Z,2.50
2022-12-23T22:44:25.964Z,1.98
2022-12-23T22:49:27.312Z,2.00
2022-12-23T22:54:28.785Z,2.35
2022-12-23T22:59:30.097Z,3.05
2022-12-23T23:04:31.438Z,2.50
2022-12-23T23:09:32.807Z,3.00
2022-12-23T23:14:52.245Z,2.97
2022-12-23T23:19:53.904Z,3.13
2022-12-23T23:24:55.213Z,2.88
2022-12-23T23:29:56.532Z,2.65
2022-12-23T23:34:57.827Z,3.33
2022-12-23T23:39:59.192Z,2.70
2022-12-23T23:45:00.517Z,3.42
2022-12-23T23:50:02.388Z,3.03
2022-12-23T23:55:04.334Z,3.13
